createdAt,value
2023-01-03T00:01:21.836Z,8.94
2023-01-03T00:03:49.040Z,8.79
2023-01-03T00:06:31.318Z,8.86
2023-01-03T00:08:59.712Z,8.73
2023-01-03T00:11:47.907Z,8.62
2023-01-03T00:14:18.344Z,8.69
2023-01-03T00:16:45.001Z,8.60
2023-01-03T00:19:14.643Z,8.61
2023-01-03T00:21:42.569Z,8.56
2023-01-03T00:24:10.058Z,8.56
2023-01-03T00:26:37.581Z,8.45
2023-01-03T00:29:04.669Z,8.46
2023-01-03T00:31:33.498Z,8.52
2023-01-03T00:33:59.996Z,8.46
2023-01-03T00:36:26.599Z,8.46
2023-01-03T00:38:53.377Z,8.51
2023-01-03T00:41:20.504Z,8.47
2023-01-03T00:43:48.925Z,8.44
2023-01-03T00:46:18.217Z,8.43
2023-01-03T00:48:45.865Z,8.42
2023-01-03T00:51:21.539Z,8.30
2023-01-03T00:53:49.992Z,8.32
2023-01-03T00:56:19.514Z,8.22
2023-01-03T00:58:47.223Z,8.14
2023-01-03T01:01:15.929Z,8.14
2023-01-03T01:03:45.852Z,8.05
2023-01-03T01:06:22.161Z,8.11
2023-01-03T01:08:50.276Z,8.14
2023-01-03T01:11:17.485Z,8.21
2023-01-03T01:13:46.034Z,8.24
2023-01-03T01:16:17.798Z,8.24
2023-01-03T01:18:46.710Z,8.26
2023-01-03T01:21:17.368Z,8.27
2023-01-03T01:23:45.444Z,8.29
2023-01-03T01:26:15.794Z,8.26
2023-01-03T01:28:43.198Z,8.17
2023-01-03T01:31:13.646Z,8.33
2023-01-03T01:33:40.377Z,8.50
2023-01-03T01:36:09.314Z,8.50
2023-01-03T01:38:35.910Z,8.36
2023-01-03T01:41:02.979Z,8.48
2023-01-03T01:43:48.322Z,8.49
2023-01-03T01:46:23.662Z,8.59
2023-01-03T01:48:55.010Z,8.63
2023-01-03T01:51:24.216Z,8.68
2023-01-03T01:53:53.331Z,8.68
2023-01-03T01:56:29.829Z,8.65
2023-01-03T01:58:56.867Z,8.60
2023-01-03T02:01:25.166Z,8.53
2023-01-03T02:04:16.282Z,8.53
2023-01-03T02:06:44.125Z,8.62
2023-01-03T02:09:10.679Z,8.67
2023-01-03T02:11:49.682Z,8.61
2023-01-03T02:14:19.345Z,8.67
2023-01-03T02:17:23.493Z,8.56
2023-01-03T02:19:53.148Z,8.60
2023-01-03T02:22:28.728Z,8.61
2023-01-03T02:25:05.616Z,8.53
2023-01-03T02:28:04.808Z,8.46
2023-01-03T02:30:39.523Z,8.55
2023-01-03T02:33:15.169Z,8.43
2023-01-03T02:35:54.873Z,8.39
2023-01-03T02:38:39.467Z,8.41
2023-01-03T02:41:24.226Z,8.44
2023-01-03T02:44:03.627Z,8.27
2023-01-03T02:46:40.298Z,8.50
2023-01-03T02:49:30.126Z,8.57
2023-01-03T02:52:02.556Z,8.44
2023-01-03T02:54:58.494Z,8.45
2023-01-03T02:57:38.529Z,8.44
2023-01-03T03:00:14.387Z,8.40
2023-01-03T03:02:45.845Z,8.44
2023-01-03T03:05:19.691Z,8.36
2023-01-03T03:07:46.936Z,8.27
2023-01-03T03:10:32.139Z,8.39
2023-01-03T03:13:15.083Z,8.39
2023-01-03T03:15:57.798Z,8.47
2023-01-03T03:18:38.822Z,8.50
2023-01-03T03:21:26.796Z,8.46
2023-01-03T03:24:14.685Z,8.27
2023-01-03T03:26:44.561Z,8.40
2023-01-03T03:29:16.916Z,8.37
2023-01-03T03:31:49.143Z,8.25
2023-01-03T03:34:25.051Z,8.11
2023-01-03T03:37:07.287Z,8.04
2023-01-03T03:39:53.394Z,7.77
2023-01-03T03:42:45.968Z,7.83
2023-01-03T03:45:24.668Z,7.84
2023-01-03T03:48:00.967Z,8.00
2023-01-03T03:50:29.884Z,8.19
2023-01-03T03:53:04.691Z,7.91
2023-01-03T03:55:40.551Z,7.93
2023-01-03T03:58:18.281Z,7.89
2023-01-03T04:00:48.772Z,7.91
2023-01-03T04:03:17.333Z,7.96
2023-01-03T04:05:52.514Z,7.98
2023-01-03T04:08:19.216Z,8.00
2023-01-03T04:10:46.274Z,7.94
2023-01-03T04:13:13.156Z,7.80
2023-01-03T04:15:39.979Z,7.65
2023-01-03T04:18:06.825Z,7.64
2023-01-03T04:20:33.358Z,7.45
2023-01-03T04:23:00.138Z,7.44
2023-01-03T04:25:27.630Z,7.51
2023-01-03T04:27:55.213Z,7.56
2023-01-03T04:30:22.521Z,7.52
2023-01-03T04:32:49.099Z,7.53
2023-01-03T04:35:15.732Z,7.69
2023-01-03T04:37:42.440Z,7.59
2023-01-03T04:40:09.658Z,7.69
2023-01-03T04:42:54.939Z,7.55
2023-01-03T04:45:21.497Z,7.55
2023-01-03T04:47:48.002Z,7.54
2023-01-03T04:50:14.619Z,7.58
2023-01-03T04:52:41.193Z,7.85
2023-01-03T04:55:08.638Z,8.08
2023-01-03T04:57:36.009Z,7.88
2023-01-03T05:00:03.759Z,7.88
2023-01-03T05:02:30.764Z,8.00
2023-01-03T05:04:57.353Z,7.96
2023-01-03T05:07:23.989Z,8.01
2023-01-03T05:09:50.515Z,8.02
2023-01-03T05:12:17.092Z,7.94
2023-01-03T05:14:43.714Z,7.88
2023-01-03T05:17:10.741Z,7.94
2023-01-03T05:19:57.376Z,7.95
2023-01-03T05:22:44.231Z,7.95
2023-01-03T05:25:29.756Z,7.84
2023-01-03T05:27:57.389Z,7.74
2023-01-03T05:30:24.450Z,7.83
2023-01-03T05:32:51.243Z,7.95
2023-01-03T05:35:17.969Z,7.88
2023-01-03T05:37:44.540Z,7.69
2023-01-03T05:40:11.295Z,7.80
2023-01-03T05:42:37.903Z,7.78
2023-01-03T05:45:05.329Z,7.68
2023-01-03T05:47:31.941Z,7.57
2023-01-03T05:49:58.474Z,7.48
2023-01-03T05:52:25.002Z,7.55
2023-01-03T05:54:51.515Z,7.53
2023-01-03T05:57:18.047Z,7.61
2023-01-03T05:59:44.552Z,7.43
2023-01-03T06:02:11.528Z,7.51
2023-01-03T06:04:38.201Z,7.52
2023-01-03T06:07:05.386Z,7.47
2023-01-03T06:09:31.966Z,7.46
2023-01-03T06:11:58.553Z,7.44
2023-01-03T06:14:25.192Z,7.59
2023-01-03T06:17:10.929Z,7.60
2023-01-03T06:19:37.542Z,7.52
2023-01-03T06:22:10.535Z,7.62
2023-01-03T06:24:39.144Z,7.70
2023-01-03T06:27:05.760Z,7.63
2023-01-03T06:29:32.432Z,7.55
2023-01-03T06:32:03.587Z,7.61
2023-01-03T06:34:33.505Z,7.47
2023-01-03T06:36:59.996Z,7.57
2023-01-03T06:39:26.668Z,7.55
2023-01-03T06:41:53.276Z,7.55
2023-01-03T06:44:19.891Z,7.54
2023-01-03T06:47:05.274Z,7.55
2023-01-03T06:49:50.489Z,7.41
2023-01-03T06:52:35.778Z,7.52
2023-01-03T06:55:02.512Z,7.36
2023-01-03T06:57:29.102Z,7.41
2023-01-03T06:59:55.769Z,7.55
2023-01-03T07:02:22.542Z,7.47
2023-01-03T07:04:49.300Z,7.61
2023-01-03T07:07:15.873Z,7.78
2023-01-03T07:09:42.400Z,7.73
2023-01-03T07:12:27.762Z,7.74
2023-01-03T07:14:54.303Z,7.82
2023-01-03T07:17:20.790Z,7.89
2023-01-03T07:19:47.319Z,7.64
2023-01-03T07:22:13.880Z,7.70
2023-01-03T07:24:40.408Z,7.66
2023-01-03T07:27:08.600Z,7.55
2023-01-03T07:29:35.172Z,7.63
2023-01-03T07:32:02.187Z,7.74
2023-01-03T07:34:28.741Z,7.66
2023-01-03T07:36:56.237Z,7.71
2023-01-03T07:39:22.842Z,7.76
2023-01-03T07:42:09.823Z,7.69
2023-01-03T07:44:36.397Z,7.56
2023-01-03T07:47:02.930Z,7.64
2023-01-03T07:49:30.035Z,7.45
2023-01-03T07:51:56.566Z,7.37
2023-01-03T07:54:23.097Z,7.51
2023-01-03T07:56:49.621Z,7.51
2023-01-03T07:59:17.056Z,7.49
2023-01-03T08:01:43.638Z,7.36
2023-01-03T08:04:10.293Z,7.55
2023-01-03T08:06:36.853Z,7.56
2023-01-03T08:09:22.548Z,7.29
2023-01-03T08:12:07.755Z,7.14
2023-01-03T08:14:34.296Z,7.23
2023-01-03T08:17:00.794Z,7.46
2023-01-03T08:19:27.409Z,7.38
2023-01-03T08:21:54.201Z,7.36
2023-01-03T08:24:20.780Z,7.43
2023-01-03T08:26:47.405Z,7.56
2023-01-03T08:29:15.020Z,7.66
2023-01-03T08:31:49.155Z,7.94
2023-01-03T08:34:22.334Z,8.12
2023-01-03T08:37:00.584Z,8.43
2023-01-03T08:39:32.079Z,8.32
2023-01-03T08:42:02.441Z,8.53
2023-01-03T08:44:29.586Z,8.68
2023-01-03T08:46:59.531Z,8.77
2023-01-03T08:49:26.714Z,8.97
2023-01-03T08:51:53.269Z,8.79
2023-01-03T08:54:19.919Z,8.72
2023-01-03T08:56:49.263Z,8.77
2023-01-03T08:59:16.033Z,8.74
2023-01-03T09:01:42.859Z,8.80
2023-01-03T09:04:09.749Z,8.75
2023-01-03T09:06:36.488Z,8.91
2023-01-03T09:09:29.038Z,8.92
2023-01-03T09:11:55.666Z,8.71
2023-01-03T09:14:22.588Z,8.92
2023-01-03T09:16:49.726Z,9.06
2023-01-03T09:20:33.704Z,8.32
2023-01-03T09:23:00.522Z,8.25
2023-01-03T09:25:31.676Z,8.24
2023-01-03T09:28:01.695Z,8.33
2023-01-03T09:37:57.792Z,7.06
2023-01-03T09:40:25.127Z,7.19
2023-01-03T09:44:04.281Z,7.47
2023-01-03T09:46:33.343Z,7.65
2023-01-03T09:49:00.628Z,7.72
2023-01-03T09:51:49.000Z,7.94
2023-01-03T09:54:50.935Z,8.07
2023-01-03T09:57:49.546Z,7.94
2023-01-03T10:00:38.018Z,8.08
2023-01-03T10:03:52.657Z,8.16
2023-01-03T10:06:28.318Z,8.13
2023-01-03T10:09:18.260Z,8.18
2023-01-03T10:11:56.467Z,8.30
2023-01-03T10:14:41.378Z,8.27
2023-01-03T10:17:27.202Z,8.61
2023-01-03T10:19:56.783Z,8.74
2023-01-03T10:22:27.921Z,8.59
2023-01-03T10:25:17.235Z,8.38
2023-01-03T10:27:59.741Z,8.43
2023-01-03T10:30:33.784Z,8.54
2023-01-03T10:33:27.630Z,8.61
2023-01-03T10:35:54.490Z,8.60
2023-01-03T10:38:23.007Z,8.65
2023-01-03T10:40:58.603Z,8.67
2023-01-03T10:43:41.402Z,8.68
2023-01-03T10:46:16.632Z,8.69
2023-01-03T10:49:25.361Z,8.85
2023-01-03T10:51:43.263Z,8.96
2023-01-03T10:54:24.706Z,8.65
2023-01-03T10:56:51.910Z,8.62
2023-01-03T10:59:32.354Z,8.67
2023-01-03T11:02:02.537Z,8.80
2023-01-03T11:04:31.568Z,8.99
2023-01-03T11:07:00.116Z,9.08
2023-01-03T11:09:32.153Z,9.13
2023-01-03T11:12:38.445Z,8.84
2023-01-03T11:15:15.634Z,8.84
2023-01-03T11:18:04.055Z,8.68
2023-01-03T11:20:45.814Z,8.49
2023-01-03T11:23:21.999Z,8.39
2023-01-03T11:26:07.699Z,8.41
2023-01-03T11:28:34.504Z,8.35
2023-01-03T11:31:33.735Z,8.49
2023-01-03T11:34:24.388Z,8.55
2023-01-03T11:37:07.485Z,8.53
2023-01-03T11:39:40.391Z,8.70
2023-01-03T11:42:16.440Z,8.69
2023-01-03T11:44:59.137Z,8.69
2023-01-03T11:47:57.855Z,8.65
2023-01-03T11:50:49.062Z,8.55
2023-01-03T11:54:57.576Z,8.43
2023-01-03T11:57:47.434Z,8.55
2023-01-03T12:00:31.220Z,8.54
2023-01-03T12:03:07.040Z,8.58
2023-01-03T12:05:57.555Z,8.56
2023-01-03T12:08:55.113Z,8.78
2023-01-03T12:11:35.339Z,8.77
2023-01-03T12:14:13.320Z,8.91
2023-01-03T12:16:47.501Z,8.90
2023-01-03T12:19:26.415Z,8.98
2023-01-03T12:22:02.579Z,8.99
2023-01-03T12:24:41.920Z,9.10
2023-01-03T12:27:17.350Z,9.21
2023-01-03T12:29:48.433Z,9.06
2023-01-03T12:32:23.524Z,9.06
2023-01-03T12:35:12.282Z,9.13
2023-01-03T12:37:41.478Z,9.22
2023-01-03T12:40:22.239Z,9.28
2023-01-03T12:43:03.881Z,9.17
2023-01-03T12:46:10.272Z,9.35
2023-01-03T12:48:45.401Z,9.38
2023-01-03T12:51:15.846Z,9.35
2023-01-03T12:53:55.488Z,9.44
2023-01-03T12:56:54.224Z,9.62
2023-01-03T13:00:10.440Z,9.70
2023-01-03T13:03:03.001Z,9.75
2023-01-03T13:05:45.227Z,9.80
2023-01-03T13:08:34.316Z,9.78
2023-01-03T13:11:06.468Z,9.59
2023-01-03T13:13:34.946Z,9.51
2023-01-03T13:16:36.262Z,9.59
2023-01-03T13:19:21.561Z,9.61
2023-01-03T13:22:01.810Z,9.60
2023-01-03T13:24:45.833Z,9.66
2023-01-03T13:27:22.514Z,9.59
2023-01-03T13:29:49.012Z,9.60
2023-01-03T13:32:21.802Z,9.47
2023-01-03T13:34:54.466Z,9.62
2023-01-03T13:37:22.015Z,9.52
2023-01-03T13:39:51.543Z,9.46
2023-01-03T13:42:38.794Z,9.42
2023-01-03T13:45:15.009Z,9.40
2023-01-03T13:47:52.742Z,9.42
2023-01-03T13:50:20.701Z,9.48
2023-01-03T13:52:59.900Z,9.51
2023-01-03T13:55:40.881Z,9.41
2023-01-03T13:58:27.415Z,9.45
2023-01-03T14:01:05.054Z,9.37
2023-01-03T14:03:49.291Z,9.47
2023-01-03T14:06:42.530Z,9.28
2023-01-03T14:09:18.018Z,9.37
2023-01-03T14:11:54.405Z,9.34
2023-01-03T14:14:28.144Z,9.42
2023-01-03T14:16:57.613Z,9.43
2023-01-03T14:19:30.071Z,9.49
2023-01-03T14:22:26.527Z,9.51
2023-01-03T14:24:54.927Z,9.76
2023-01-03T14:27:26.096Z,9.67
2023-01-03T14:29:55.347Z,9.51
2023-01-03T14:32:33.755Z,9.41
2023-01-03T14:35:01.290Z,9.36
2023-01-03T14:37:28.420Z,9.45
2023-01-03T14:40:00.694Z,9.44
2023-01-03T14:42:28.177Z,9.50
2023-01-03T14:44:59.137Z,9.36
2023-01-03T14:47:34.175Z,9.42
2023-01-03T14:50:02.457Z,9.47
2023-01-03T14:52:33.828Z,9.45
2023-01-03T14:55:12.759Z,9.40
2023-01-03T14:57:40.285Z,9.36
2023-01-03T15:00:11.680Z,9.43
2023-01-03T15:02:41.095Z,9.36
2023-01-03T15:05:32.925Z,9.37
2023-01-03T15:08:14.922Z,9.39
2023-01-03T15:10:49.256Z,9.32
2023-01-03T15:13:22.010Z,9.23
2023-01-03T15:15:57.798Z,9.23
2023-01-03T15:18:30.453Z,9.33
2023-01-03T15:20:59.455Z,9.33
2023-01-03T15:23:45.718Z,9.26
2023-01-03T15:26:38.846Z,9.25
2023-01-03T15:29:14.856Z,9.27
2023-01-03T15:31:53.798Z,9.25
2023-01-03T15:34:28.965Z,9.15
2023-01-03T15:36:55.484Z,9.13
2023-01-03T15:39:26.008Z,9.23
2023-01-03T15:45:16.688Z,9.20
2023-01-03T15:47:43.763Z,9.17
2023-01-03T15:50:14.825Z,9.15
2023-01-03T15:52:41.491Z,9.05
2023-01-03T15:55:12.665Z,9.10
2023-01-03T15:57:39.695Z,9.10
2023-01-03T16:04:37.759Z,9.15
2023-01-03T16:07:05.305Z,9.15
2023-01-03T16:09:31.914Z,9.13
2023-01-03T16:11:58.479Z,9.09
2023-01-03T16:14:33.932Z,9.04
2023-01-03T16:17:00.747Z,9.11
2023-01-03T16:19:28.403Z,9.08
2023-01-03T16:26:33.977Z,8.97
2023-01-03T16:29:01.333Z,8.84
2023-01-03T16:31:33.113Z,8.91
2023-01-03T16:34:00.179Z,8.86
2023-01-03T16:36:37.296Z,8.76
2023-01-03T16:39:07.029Z,8.77
2023-01-03T16:41:34.055Z,8.79
2023-01-03T16:44:00.638Z,8.72
2023-01-03T16:46:28.266Z,8.68
2023-01-03T16:48:57.788Z,8.69
2023-01-03T16:51:30.362Z,8.72
2023-01-03T16:53:59.022Z,8.75
2023-01-03T16:56:26.700Z,8.66
2023-01-03T16:58:53.526Z,8.71
2023-01-03T17:01:20.404Z,8.75
2023-01-03T17:03:47.208Z,8.64
2023-01-03T17:06:37.519Z,8.68
2023-01-03T17:09:16.203Z,8.72
2023-01-03T17:11:43.789Z,8.73
2023-01-03T17:14:17.525Z,8.60
2023-01-03T17:16:44.597Z,8.56
2023-01-03T17:20:02.603Z,8.54
2023-01-03T17:22:15.323Z,8.57
2023-01-03T17:24:42.663Z,8.44
2023-01-03T17:27:16.970Z,8.42
2023-01-03T17:29:44.815Z,8.51
2023-01-03T17:32:19.603Z,8.60
2023-01-03T17:34:46.625Z,8.60
2023-01-03T17:37:19.747Z,8.53
2023-01-03T17:39:53.024Z,8.63
2023-01-03T17:42:20.248Z,8.62
2023-01-03T17:45:06.563Z,8.61
2023-01-03T17:47:56.399Z,8.66
2023-01-03T17:50:23.959Z,8.61
2023-01-03T17:52:55.590Z,8.64
2023-01-03T17:55:30.566Z,8.72
2023-01-03T17:58:01.258Z,8.78
2023-01-03T18:00:29.918Z,8.80
2023-01-03T18:02:57.646Z,8.77
2023-01-03T18:05:28.856Z,8.84
2023-01-03T18:07:58.329Z,8.97
2023-01-03T18:10:32.814Z,8.90
2023-01-03T18:13:00.343Z,8.87
2023-01-03T18:15:27.570Z,8.79
2023-01-03T18:17:54.386Z,8.81
2023-01-03T18:20:21.205Z,8.88
2023-01-03T18:22:49.174Z,8.84
2023-01-03T18:25:23.490Z,8.83
2023-01-03T18:27:54.530Z,8.85
2023-01-03T18:30:21.433Z,8.90
2023-01-03T18:32:48.392Z,9.01
2023-01-03T18:35:20.793Z,8.94
2023-01-03T18:37:53.131Z,8.93
2023-01-03T18:40:27.406Z,8.95
2023-01-03T18:43:10.169Z,8.85
2023-01-03T18:45:38.805Z,8.91
2023-01-03T18:48:06.402Z,8.94
2023-01-03T18:50:33.512Z,8.98
2023-01-03T18:53:04.179Z,8.90
2023-01-03T18:55:34.957Z,8.99
2023-01-03T18:58:27.785Z,8.94
2023-01-03T19:00:54.424Z,8.99
2023-01-03T19:03:24.109Z,8.97
2023-01-03T19:05:53.980Z,8.98
2023-01-03T19:08:23.826Z,8.98
2023-01-03T19:10:50.768Z,8.94
2023-01-03T19:13:25.420Z,8.97
2023-01-03T19:15:53.951Z,8.98
2023-01-03T19:18:22.467Z,8.97
2023-01-03T19:20:50.716Z,8.93
2023-01-03T19:23:26.513Z,8.94
2023-01-03T19:25:54.792Z,8.73
2023-01-03T19:28:25.490Z,8.76
2023-01-03T19:30:52.537Z,8.83
2023-01-03T19:33:20.116Z,8.78
2023-01-03T19:35:46.789Z,8.91
2023-01-03T19:38:13.351Z,8.77
2023-01-03T19:40:42.981Z,8.65
2023-01-03T19:43:21.202Z,8.55
2023-01-03T19:45:48.640Z,8.54
2023-01-03T19:48:21.965Z,8.62
2023-01-03T19:50:49.549Z,8.61
2023-01-03T19:53:16.601Z,8.61
2023-01-03T19:55:46.578Z,8.60
2023-01-03T19:58:21.863Z,8.46
2023-01-03T20:00:49.608Z,8.47
2023-01-03T20:03:33.758Z,8.49
2023-01-03T20:06:01.410Z,8.43
2023-01-03T20:08:28.048Z,8.55
2023-01-03T20:10:54.790Z,8.54
2023-01-03T20:13:24.123Z,8.51
2023-01-03T20:15:54.013Z,8.47
2023-01-03T20:18:20.629Z,8.50
2023-01-03T20:20:48.488Z,8.53
2023-01-03T20:23:16.496Z,8.41
2023-01-03T20:25:44.712Z,8.38
2023-01-03T20:28:29.006Z,8.36
2023-01-03T20:30:57.388Z,8.39
2023-01-03T20:33:24.968Z,8.47
2023-01-03T20:36:22.052Z,8.57
2023-01-03T20:38:46.955Z,8.42
2023-01-03T20:41:15.534Z,8.44
2023-01-03T20:43:47.337Z,8.44
2023-01-03T20:46:20.520Z,8.26
2023-01-03T20:48:55.779Z,8.27
2023-01-03T20:51:24.296Z,8.23
2023-01-03T20:53:54.823Z,8.20
2023-01-03T20:56:22.688Z,8.39
2023-01-03T20:58:49.205Z,8.49
2023-01-03T21:01:15.875Z,8.44
2023-01-03T21:03:42.825Z,8.44
2023-01-03T21:06:29.949Z,8.32
2023-01-03T21:08:57.888Z,8.37
2023-01-03T21:11:26.558Z,8.44
2023-01-03T21:13:55.158Z,8.44
2023-01-03T21:16:41.631Z,8.38
2023-01-03T21:19:35.815Z,8.47
2023-01-03T21:22:04.772Z,8.63
2023-01-03T21:24:34.444Z,8.67
2023-01-03T21:27:03.747Z,8.62
2023-01-03T21:29:30.804Z,8.50
2023-01-03T21:31:58.857Z,8.60
2023-01-03T21:34:25.384Z,8.49
2023-01-03T21:36:51.964Z,8.31
2023-01-03T21:39:18.469Z,8.32
2023-01-03T21:42:03.418Z,8.40
2023-01-03T21:44:30.017Z,8.40
2023-01-03T21:46:56.711Z,8.39
2023-01-03T21:49:23.322Z,8.47
2023-01-03T21:51:50.003Z,8.39
2023-01-03T21:54:16.574Z,8.33
2023-01-03T21:56:46.733Z,8.43
2023-01-03T21:59:17.078Z,8.40
2023-01-03T22:02:08.016Z,8.39
2023-01-03T22:04:35.115Z,8.38
2023-01-03T22:07:02.289Z,8.39
2023-01-03T22:09:49.344Z,8.35
2023-01-03T22:12:17.014Z,8.60
2023-01-03T22:14:45.235Z,8.60
2023-01-03T22:17:11.927Z,8.56
2023-01-03T22:19:38.551Z,8.56
2023-01-03T22:22:05.458Z,8.51
2023-01-03T22:24:32.092Z,8.47
2023-01-03T22:26:58.641Z,8.51
2023-01-03T22:29:25.277Z,8.62
2023-01-03T22:31:52.260Z,8.66
2023-01-03T22:34:19.158Z,8.64
2023-01-03T22:36:45.749Z,8.66
2023-01-03T22:39:12.440Z,8.73
2023-01-03T22:41:39.211Z,8.72
2023-01-03T22:44:05.749Z,8.67
2023-01-03T22:46:32.435Z,8.68
2023-01-03T22:48:59.465Z,8.66
2023-01-03T22:51:26.255Z,8.74
2023-01-03T22:53:52.823Z,8.72
2023-01-03T22:56:19.509Z,8.78
2023-01-03T22:58:46.468Z,8.83
2023-01-03T23:01:18.967Z,8.79
2023-01-03T23:03:46.886Z,8.79
2023-01-03T23:06:17.346Z,8.87
2023-01-03T23:08:44.309Z,8.79
2023-01-03T23:11:34.288Z,8.68
2023-01-03T23:14:03.331Z,8.68
2023-01-03T23:16:31.937Z,8.73
2023-01-03T23:19:01.023Z,8.69
2023-01-03T23:21:27.683Z,8.83
2023-01-03T23:23:54.339Z,8.88
2023-01-03T23:26:21.290Z,8.80
2023-01-03T23:28:48.352Z,9.06
2023-01-03T23:31:15.354Z,9.08
2023-01-03T23:33:42.499Z,9.03
2023-01-03T23:36:11.285Z,9.00
2023-01-03T23:38:37.895Z,8.99
2023-01-03T23:41:11.841Z,8.94
2023-01-03T23:43:38.583Z,8.97
2023-01-03T23:46:06.010Z,9.03
2023-01-03T23:48:32.994Z,9.17
2023-01-03T23:51:05.011Z,9.15
2023-01-03T23:53:31.699Z,9.11
2023-01-03T23:55:58.741Z,9.30
2023-01-03T23:58:25.519Z,9.18
